createdAt,value
2022-12-08T00:00:50.082Z,101412.72
2022-12-08T00:02:54.287Z,101404.06
2022-12-08T00:05:17.247Z,101400.59
2022-12-08T00:07:38.711Z,101399.75
2022-12-08T00:09:43.773Z,101402.41
2022-12-08T00:11:48.051Z,101392.00
2022-12-08T00:13:52.016Z,101385.97
2022-12-08T00:16:01.996Z,101387.75
2022-12-08T00:18:06.876Z,101387.78
2022-12-08T00:20:13.174Z,101386.91
2022-12-08T00:22:17.477Z,101376.47
2022-12-08T00:24:22.309Z,101380.88
2022-12-08T00:26:26.750Z,101381.75
2022-12-08T00:28:30.744Z,101375.66
2022-12-08T00:30:35.331Z,101375.63
2022-12-08T00:32:39.244Z,101373.84
2022-12-08T00:34:42.939Z,101373.81
2022-12-08T00:36:48.232Z,101365.06
2022-12-08T00:38:52.086Z,101371.19
2022-12-08T00:40:55.909Z,101366.88
2022-12-08T00:42:59.813Z,101359.91
2022-12-08T00:45:03.592Z,101352.06
2022-12-08T00:47:07.558Z,101353.00
2022-12-08T00:49:11.261Z,101352.19
2022-12-08T00:51:15.116Z,101347.91
2022-12-08T00:53:20.414Z,101347.13
2022-12-08T00:55:24.041Z,101338.44
2022-12-08T00:57:27.928Z,101335.84
2022-12-08T00:59:31.741Z,101338.50
2022-12-08T01:01:36.144Z,101336.78
2022-12-08T01:03:40.547Z,101335.94
2022-12-08T01:05:44.870Z,101333.38
2022-12-08T01:07:49.842Z,101324.75
2022-12-08T01:09:55.063Z,101332.66
2022-12-08T01:11:58.882Z,101330.06
2022-12-08T01:14:02.634Z,101322.28
2022-12-08T01:16:06.681Z,101323.16
2022-12-08T01:18:10.178Z,101324.94
2022-12-08T01:20:14.006Z,101325.84
2022-12-08T01:22:17.821Z,101322.38
2022-12-08T01:24:23.016Z,101322.41
2022-12-08T01:26:28.168Z,101318.13
2022-12-08T01:28:32.974Z,101318.97
2022-12-08T01:30:36.671Z,101303.31
2022-12-08T01:32:40.358Z,101307.69
2022-12-08T01:34:44.625Z,101308.56
2022-12-08T01:36:48.765Z,101307.72
2022-12-08T01:38:52.842Z,101310.38
2022-12-08T01:40:56.442Z,101304.28
2022-12-08T01:43:01.708Z,101296.47
2022-12-08T01:45:07.725Z,101297.34
2022-12-08T01:47:11.618Z,101299.97
2022-12-08T01:49:19.603Z,101293.03
2022-12-08T01:51:23.930Z,101293.03
2022-12-08T01:53:30.965Z,101291.31
2022-12-08T01:55:39.358Z,101287.84
2022-12-08T01:57:46.634Z,101287.00
2022-12-08T01:59:56.273Z,101290.50
2022-12-08T02:02:00.418Z,101288.81
2022-12-08T02:04:06.037Z,101283.59
2022-12-08T02:06:10.867Z,101280.97
2022-12-08T02:08:16.157Z,101280.13
2022-12-08T02:10:22.114Z,101281.00
2022-12-08T02:12:26.165Z,101285.38
2022-12-08T02:14:30.000Z,101281.94
2022-12-08T02:16:44.809Z,101278.47
2022-12-08T02:19:29.579Z,101279.34
2022-12-08T02:21:33.635Z,101277.63
2022-12-08T02:23:49.105Z,101275.00
2022-12-08T02:26:10.217Z,101273.31
2022-12-08T02:28:45.248Z,101282.03
2022-12-08T02:30:56.077Z,101275.03
2022-12-08T02:33:44.803Z,101267.25
2022-12-08T02:35:58.786Z,101269.00
2022-12-08T02:38:10.043Z,101267.28
2022-12-08T02:40:20.984Z,101263.84
2022-12-08T02:42:29.799Z,101267.31
2022-12-08T02:44:39.161Z,101263.00
2022-12-08T02:46:49.237Z,101268.28
2022-12-08T02:48:54.678Z,101266.53
2022-12-08T02:51:00.800Z,101263.97
2022-12-08T02:55:31.156Z,101253.56
2022-12-08T02:57:46.644Z,101257.03
2022-12-08T03:00:06.110Z,101254.44
2022-12-08T03:02:37.553Z,101256.25
2022-12-08T03:04:49.569Z,101243.22
2022-12-08T03:07:07.180Z,101240.59
2022-12-08T03:09:19.897Z,101238.06
2022-12-08T03:11:31.007Z,101228.50
2022-12-08T03:13:41.026Z,101231.13
2022-12-08T03:15:48.472Z,101217.22
2022-12-08T03:17:56.756Z,101225.09
2022-12-08T03:20:07.546Z,101223.34
2022-12-08T03:22:14.900Z,101220.75
2022-12-08T03:24:20.460Z,101220.81
2022-12-08T03:26:30.338Z,101218.19
2022-12-08T03:28:34.239Z,101212.09
2022-12-08T03:30:41.287Z,101214.69
2022-12-08T03:32:49.504Z,101218.19
2022-12-08T03:34:53.897Z,101212.09
2022-12-08T03:36:58.898Z,101209.47
2022-12-08T03:39:05.720Z,101213.81
2022-12-08T03:41:20.979Z,101200.78
2022-12-08T03:43:24.745Z,101204.25
2022-12-08T03:45:28.498Z,101192.06
2022-12-08T03:47:32.393Z,101190.31
2022-12-08T03:49:36.010Z,101187.66
2022-12-08T03:51:39.749Z,101174.56
2022-12-08T03:53:43.765Z,101186.69
2022-12-08T03:55:48.941Z,101176.22
2022-12-08T03:57:52.800Z,101170.03
2022-12-08T03:59:56.669Z,101166.47
2022-12-08T04:02:00.843Z,101170.75
2022-12-08T04:04:04.716Z,101173.31
2022-12-08T04:06:09.400Z,101168.91
2022-12-08T04:08:13.255Z,101164.53
2022-12-08T04:10:17.323Z,101162.72
2022-12-08T04:12:22.922Z,101160.09
2022-12-08T04:14:26.917Z,101160.97
2022-12-08T04:16:30.674Z,101156.66
2022-12-08T04:18:37.246Z,101167.06
2022-12-08T04:20:42.183Z,101158.34
2022-12-08T04:22:46.462Z,101154.81
2022-12-08T04:24:50.231Z,101153.03
2022-12-08T04:26:53.897Z,101146.03
2022-12-08T04:28:58.862Z,101137.25
2022-12-08T04:31:02.872Z,101127.69
2022-12-08T04:33:06.517Z,101120.66
2022-12-08T04:35:12.590Z,101131.06
2022-12-08T04:37:15.973Z,101128.47
2022-12-08T04:39:19.314Z,101132.84
2022-12-08T04:41:22.629Z,101127.63
2022-12-08T04:43:26.088Z,101119.72
2022-12-08T04:45:30.797Z,101123.19
2022-12-08T04:47:34.547Z,101130.97
2022-12-08T04:49:37.828Z,101128.31
2022-12-08T04:51:41.243Z,101117.88
2022-12-08T04:53:46.622Z,101121.34
2022-12-08T04:55:50.565Z,101123.09
2022-12-08T04:57:54.105Z,101132.66
2022-12-08T04:59:57.645Z,101117.88
2022-12-08T05:02:02.598Z,101119.59
2022-12-08T05:04:06.075Z,101116.16
2022-12-08T05:06:11.820Z,101114.41
2022-12-08T05:08:15.368Z,101114.41
2022-12-08T05:10:18.700Z,101114.41
2022-12-08T05:12:22.621Z,101117.94
2022-12-08T05:14:25.955Z,101117.97
2022-12-08T05:16:29.450Z,101116.31
2022-12-08T05:18:34.506Z,101112.84
2022-12-08T05:20:37.996Z,101107.66
2022-12-08T05:22:41.393Z,101108.59
2022-12-08T05:24:47.702Z,101109.47
2022-12-08T05:26:51.481Z,101105.13
2022-12-08T05:28:55.331Z,101098.09
2022-12-08T05:30:59.480Z,101097.22
2022-12-08T05:33:04.068Z,101079.78
2022-12-08T05:35:10.580Z,101080.66
2022-12-08T05:37:14.458Z,101074.53
2022-12-08T05:39:18.927Z,101071.88
2022-12-08T05:41:23.552Z,101078.88
2022-12-08T05:43:28.569Z,101077.13
2022-12-08T05:45:32.927Z,101078.88
2022-12-08T05:47:36.663Z,101072.75
2022-12-08T05:49:41.286Z,101074.50
2022-12-08T05:51:46.681Z,101078.00
2022-12-08T05:53:53.474Z,101078.00
2022-12-08T05:56:00.271Z,101073.63
2022-12-08T05:58:07.996Z,101081.50
2022-12-08T06:00:13.227Z,101076.25
2022-12-08T06:02:17.254Z,101088.50
2022-12-08T06:04:20.940Z,101080.69
2022-12-08T06:06:24.752Z,101075.47
2022-12-08T06:08:29.917Z,101071.94
2022-12-08T06:10:33.730Z,101071.94
2022-12-08T06:12:37.431Z,101064.97
2022-12-08T06:14:41.678Z,101072.75
2022-12-08T06:16:45.216Z,101063.13
2022-12-08T06:18:49.128Z,101061.34
2022-12-08T06:20:53.121Z,101063.06
2022-12-08T06:22:57.326Z,101061.28
2022-12-08T06:25:05.933Z,101069.97
2022-12-08T06:27:11.012Z,101070.91
2022-12-08T06:29:14.515Z,101066.53
2022-12-08T06:31:20.222Z,101064.72
2022-12-08T06:33:24.425Z,101061.25
2022-12-08T06:35:28.461Z,101069.97
2022-12-08T06:37:32.383Z,101062.09
2022-12-08T06:39:36.678Z,101067.31
2022-12-08T06:41:55.555Z,101058.56
2022-12-08T06:44:00.091Z,101059.38
2022-12-08T06:46:06.328Z,101055.06
2022-12-08T06:48:10.112Z,101048.06
2022-12-08T06:50:14.754Z,101050.66
2022-12-08T06:52:19.545Z,101050.66
2022-12-08T06:54:23.957Z,101055.94
2022-12-08T06:56:30.334Z,101059.44
2022-12-08T06:58:35.736Z,101054.22
2022-12-08T07:00:39.495Z,101049.88
2022-12-08T07:02:44.041Z,101044.63
2022-12-08T07:04:48.183Z,101034.13
2022-12-08T07:06:52.332Z,101035.91
2022-12-08T07:08:59.573Z,101035.94
2022-12-08T07:11:11.766Z,101042.03
2022-12-08T07:13:17.913Z,101035.94
2022-12-08T07:15:23.235Z,101040.25
2022-12-08T07:17:28.736Z,101035.94
2022-12-08T07:19:34.567Z,101031.56
2022-12-08T07:21:40.787Z,101032.50
2022-12-08T07:23:50.249Z,101022.91
2022-12-08T07:25:58.722Z,101019.44
2022-12-08T07:28:03.417Z,101015.09
2022-12-08T07:30:11.008Z,101010.78
2022-12-08T07:32:16.157Z,101020.31
2022-12-08T07:34:20.623Z,101022.03
2022-12-08T07:36:25.479Z,101016.81
2022-12-08T07:38:30.793Z,101015.09
2022-12-08T07:40:34.561Z,101017.75
2022-12-08T07:42:38.748Z,101021.25
2022-12-08T07:44:43.231Z,101021.19
2022-12-08T07:46:48.575Z,101016.72
2022-12-08T07:48:54.101Z,101023.69
2022-12-08T07:51:02.928Z,101023.59
2022-12-08T07:53:08.804Z,101020.09
2022-12-08T07:55:13.067Z,101023.53
2022-12-08T07:57:18.693Z,101014.81
2022-12-08T07:59:23.056Z,101019.16
2022-12-08T08:01:30.470Z,101018.31
2022-12-08T08:03:34.593Z,101012.22
2022-12-08T08:05:40.562Z,101010.47
2022-12-08T08:07:46.918Z,101007.03
2022-12-08T08:09:50.687Z,101009.63
2022-12-08T08:12:22.382Z,101007.09
2022-12-08T08:14:19.239Z,101003.63
2022-12-08T08:16:23.332Z,101003.66
2022-12-08T08:18:27.719Z,101008.09
2022-12-08T08:20:33.241Z,101009.88
2022-12-08T08:22:38.636Z,101006.44
2022-12-08T08:24:45.075Z,101008.22
2022-12-08T08:26:49.116Z,101010.81
2022-12-08T08:28:55.778Z,101004.72
2022-12-08T08:30:59.995Z,101006.44
2022-12-08T08:33:06.103Z,101015.09
2022-12-08T08:35:11.248Z,101014.28
2022-12-08T08:37:15.340Z,101013.34
2022-12-08T08:39:21.265Z,101017.66
2022-12-08T08:41:25.588Z,101012.44
2022-12-08T08:43:37.787Z,101013.22
2022-12-08T08:45:42.124Z,101014.06
2022-12-08T08:47:46.548Z,101014.88
2022-12-08T08:49:50.703Z,101012.22
2022-12-08T08:51:55.146Z,101010.47
2022-12-08T08:53:59.231Z,101019.13
2022-12-08T08:56:06.561Z,101011.28
2022-12-08T08:58:10.497Z,101013.00
2022-12-08T09:00:15.487Z,101020.78
2022-12-08T09:02:20.888Z,101016.41
2022-12-08T09:04:25.779Z,101012.06
2022-12-08T09:06:30.144Z,101013.75
2022-12-08T09:08:34.317Z,101002.34
2022-12-08T09:10:38.055Z,101011.88
2022-12-08T09:12:44.065Z,101014.44
2022-12-08T09:14:47.698Z,101010.84
2022-12-08T09:16:51.491Z,101007.34
2022-12-08T09:18:55.598Z,101008.22
2022-12-08T09:21:05.146Z,101007.31
2022-12-08T09:23:09.412Z,101004.72
2022-12-08T09:25:13.223Z,101003.06
2022-12-08T09:27:17.128Z,101002.22
2022-12-08T09:29:22.257Z,101003.94
2022-12-08T09:31:27.695Z,101001.38
2022-12-08T09:33:32.114Z,101005.66
2022-12-08T09:35:36.355Z,101008.19
2022-12-08T09:37:40.563Z,101004.63
2022-12-08T09:39:45.642Z,101012.34
2022-12-08T09:41:52.744Z,101007.00
2022-12-08T09:44:06.605Z,101006.03
2022-12-08T09:46:15.377Z,101006.75
2022-12-08T09:48:24.609Z,101010.16
2022-12-08T09:50:35.629Z,101002.16
2022-12-08T09:52:43.228Z,101009.84
2022-12-08T09:54:47.420Z,101005.44
2022-12-08T09:56:56.850Z,101009.66
2022-12-08T09:59:04.934Z,101009.50
2022-12-08T10:01:12.637Z,101005.91
2022-12-08T10:03:17.066Z,101000.56
2022-12-08T10:05:21.916Z,101003.19
2022-12-08T10:07:31.532Z,100993.59
2022-12-08T10:09:43.422Z,100997.13
2022-12-08T10:11:55.105Z,100998.00
2022-12-08T10:14:11.779Z,100997.94
2022-12-08T10:16:29.725Z,100991.72
2022-12-08T10:18:37.955Z,100990.78
2022-12-08T10:20:43.930Z,100989.78
2022-12-08T10:22:51.755Z,100986.22
2022-12-08T10:25:01.855Z,100983.72
2022-12-08T10:27:07.118Z,100981.16
2022-12-08T10:29:13.947Z,100982.88
2022-12-08T10:31:21.524Z,100978.34
2022-12-08T10:33:25.574Z,100986.84
2022-12-08T10:35:46.057Z,100974.38
2022-12-08T10:37:57.998Z,100976.59
2022-12-08T10:40:04.250Z,100973.75
2022-12-08T10:42:18.195Z,100977.09
2022-12-08T10:44:21.506Z,100976.19
2022-12-08T10:46:29.369Z,100965.50
2022-12-08T10:48:33.194Z,100961.69
2022-12-08T10:50:38.093Z,100964.81
2022-12-08T10:52:42.902Z,100967.91
2022-12-08T10:54:46.521Z,100962.47
2022-12-08T10:56:55.541Z,100966.53
2022-12-08T10:59:18.795Z,100966.47
2022-12-08T11:01:25.452Z,100959.66
2022-12-08T11:03:33.103Z,100957.13
2022-12-08T11:05:38.113Z,100948.56
2022-12-08T11:07:49.173Z,100955.81
2022-12-08T11:09:58.417Z,100950.81
2022-12-08T11:12:08.003Z,100947.47
2022-12-08T11:14:18.699Z,100949.44
2022-12-08T11:16:24.474Z,100951.41
2022-12-08T11:18:40.775Z,100955.97
2022-12-08T11:20:44.292Z,100951.75
2022-12-08T11:22:53.137Z,100945.84
2022-12-08T11:25:02.891Z,100948.56
2022-12-08T11:27:07.804Z,100943.41
2022-12-08T11:29:12.972Z,100945.97
2022-12-08T11:31:26.726Z,100950.31
2022-12-08T11:33:31.812Z,100943.34
2022-12-08T11:35:38.673Z,100945.16
2022-12-08T11:37:44.975Z,100946.91
2022-12-08T11:39:51.540Z,100941.72
2022-12-08T11:41:58.031Z,100945.97
2022-12-08T11:44:08.133Z,100936.31
2022-12-08T11:46:15.558Z,100939.53
2022-12-08T11:48:24.027Z,100927.88
2022-12-08T11:50:34.030Z,100924.19
2022-12-08T11:52:46.687Z,100917.84
2022-12-08T11:54:54.351Z,100920.25
2022-12-08T11:56:59.912Z,100909.78
2022-12-08T11:59:18.863Z,100911.50
2022-12-08T12:01:23.674Z,100914.13
2022-12-08T12:03:35.465Z,100898.50
2022-12-08T12:06:18.191Z,100899.50
2022-12-08T12:08:31.644Z,100897.75
2022-12-08T12:10:47.620Z,100900.53
2022-12-08T12:13:10.429Z,100900.47
2022-12-08T12:16:07.920Z,100900.53
2022-12-08T12:18:18.460Z,100895.53
2022-12-08T12:20:28.823Z,100899.34
2022-12-08T12:22:38.997Z,100896.13
2022-12-08T12:24:46.491Z,100895.34
2022-12-08T12:26:59.177Z,100888.50
2022-12-08T12:29:06.579Z,100891.25
2022-12-08T12:31:13.453Z,100893.88
2022-12-08T12:33:19.595Z,100890.34
2022-12-08T12:35:34.327Z,100883.31
2022-12-08T12:37:43.573Z,100884.28
2022-12-08T12:39:52.169Z,100884.31
2022-12-08T12:41:58.263Z,100880.94
2022-12-08T12:44:49.139Z,100886.06
2022-12-08T12:47:00.659Z,100885.13
2022-12-08T12:49:48.965Z,100887.69
2022-12-08T12:51:56.206Z,100882.44
2022-12-08T12:54:22.335Z,100888.69
2022-12-08T12:56:48.885Z,100888.03
2022-12-08T12:58:55.193Z,100883.84
2022-12-08T13:01:32.102Z,100885.78
2022-12-08T13:03:35.978Z,100886.03
2022-12-08T13:05:51.571Z,100887.03
2022-12-08T13:07:58.859Z,100886.25
2022-12-08T13:10:17.329Z,100878.44
2022-12-08T13:12:25.199Z,100882.06
2022-12-08T13:14:35.261Z,100883.06
2022-12-08T13:16:40.916Z,100881.41
2022-12-08T13:18:50.726Z,100874.44
2022-12-08T13:20:58.803Z,100872.81
2022-12-08T13:23:26.219Z,100871.03
2022-12-08T13:25:52.888Z,100864.94
2022-12-08T13:27:56.492Z,100866.69
2022-12-08T13:30:37.129Z,100858.06
2022-12-08T13:33:17.868Z,100867.59
2022-12-08T13:35:22.422Z,100871.94
2022-12-08T13:37:31.058Z,100859.72
2022-12-08T13:39:43.655Z,100851.75
2022-12-08T13:41:54.807Z,100850.88
2022-12-08T13:47:17.275Z,100857.72
2022-12-08T13:59:09.456Z,100831.28
2022-12-08T14:01:17.882Z,100840.00
2022-12-08T14:03:21.538Z,100828.66
2022-12-08T14:05:48.068Z,100831.28
2022-12-08T14:07:54.198Z,100835.63
2022-12-08T14:10:00.035Z,100839.06
2022-12-08T14:12:05.668Z,100829.44
2022-12-08T14:14:27.277Z,100827.66
2022-12-08T14:16:41.524Z,100825.00
2022-12-08T14:18:45.005Z,100822.38
2022-12-08T14:21:20.483Z,100820.69
2022-12-08T14:23:24.675Z,100819.75
2022-12-08T14:25:29.680Z,100814.63
2022-12-08T14:27:35.613Z,100816.34
2022-12-08T14:29:45.758Z,100816.41
2022-12-08T14:31:49.590Z,100812.00
2022-12-08T14:33:56.540Z,100812.00
2022-12-08T14:36:01.095Z,100813.72
2022-12-08T14:38:06.617Z,100799.81
2022-12-08T14:40:23.509Z,100799.81
2022-12-08T14:42:28.801Z,100799.88
2022-12-08T14:44:34.915Z,100807.72
2022-12-08T14:46:40.437Z,100807.78
2022-12-08T14:48:44.803Z,100806.00
2022-12-08T14:51:00.484Z,100802.50
2022-12-08T14:53:04.447Z,100801.72
2022-12-08T14:55:09.141Z,100803.56
2022-12-08T14:57:15.761Z,100812.31
2022-12-08T14:59:23.205Z,100805.41
2022-12-08T15:01:27.275Z,100811.63
2022-12-08T15:03:33.999Z,100802.91
2022-12-08T15:05:39.416Z,100801.16
2022-12-08T15:07:48.949Z,100794.25
2022-12-08T15:10:10.858Z,100793.38
2022-12-08T15:12:27.107Z,100796.94
2022-12-08T15:14:33.689Z,100802.16
2022-12-08T15:16:41.211Z,100811.75
2022-12-08T15:18:46.325Z,100804.78
2022-12-08T15:20:53.186Z,100806.63
2022-12-08T15:22:57.361Z,100801.50
2022-12-08T15:25:02.070Z,100802.38
2022-12-08T15:27:06.173Z,100809.41
2022-12-08T15:29:15.405Z,100813.84
2022-12-08T15:31:19.648Z,100813.84
2022-12-08T15:33:23.581Z,100807.84
2022-12-08T15:35:29.484Z,100805.28
2022-12-08T15:37:33.286Z,100802.69
2022-12-08T15:39:38.710Z,100806.19
2022-12-08T15:41:42.327Z,100805.38
2022-12-08T15:43:45.944Z,100802.88
2022-12-08T15:45:58.254Z,100800.28
2022-12-08T15:48:02.858Z,100795.97
2022-12-08T15:50:08.173Z,100795.16
2022-12-08T15:52:17.923Z,100801.34
2022-12-08T15:54:21.629Z,100809.22
2022-12-08T15:56:28.178Z,100805.00
2022-12-08T15:58:52.845Z,100802.59
2022-12-08T16:00:56.330Z,100797.53
2022-12-08T16:03:42.119Z,100804.66
2022-12-08T16:05:44.267Z,100813.53
2022-12-08T16:07:54.618Z,100803.19
2022-12-08T16:10:01.076Z,100813.63
2022-12-08T16:12:22.612Z,100817.09
2022-12-08T16:16:49.639Z,100810.28
2022-12-08T16:18:53.345Z,100802.53
2022-12-08T16:21:31.666Z,100808.66
2022-12-08T16:23:41.713Z,100811.31
2022-12-08T16:26:17.351Z,100819.22
2022-12-08T16:28:45.281Z,100818.44
2022-12-08T16:30:35.021Z,100816.81
2022-12-08T16:32:38.604Z,100813.34
2022-12-08T16:34:42.182Z,100812.53
2022-12-08T16:36:45.844Z,100813.47
2022-12-08T16:38:51.193Z,100811.03
2022-12-08T16:41:12.283Z,100811.19
2022-12-08T16:43:16.101Z,100817.41
2022-12-08T16:45:22.144Z,100815.78
2022-12-08T16:47:26.189Z,100808.91
2022-12-08T16:49:29.879Z,100818.56
2022-12-08T16:51:33.625Z,100814.28
2022-12-08T16:53:37.036Z,100808.22
2022-12-08T16:55:42.381Z,100810.13
2022-12-08T16:57:47.484Z,100819.00
2022-12-08T16:59:51.214Z,100819.09
2022-12-08T17:01:54.913Z,100813.13
2022-12-08T17:06:22.174Z,100808.81
2022-12-08T17:08:25.731Z,100812.38
2022-12-08T17:10:31.859Z,100818.47
2022-12-08T17:12:37.019Z,100815.97
2022-12-08T17:14:40.641Z,100804.78
2022-12-08T17:16:45.393Z,100799.63
2022-12-08T17:18:49.660Z,100802.31
2022-12-08T17:20:53.218Z,100807.53
2022-12-08T17:22:57.666Z,100807.50
2022-12-08T17:25:02.090Z,100807.56
2022-12-08T17:27:06.890Z,100813.81
2022-12-08T17:29:11.760Z,100809.50
2022-12-08T17:31:16.924Z,100807.78
2022-12-08T17:33:26.612Z,100804.25
2022-12-08T17:35:30.794Z,100807.69
2022-12-08T17:37:34.500Z,100804.19
2022-12-08T17:39:39.063Z,100805.97
2022-12-08T17:41:42.778Z,100810.44
2022-12-08T17:43:46.474Z,100810.53
2022-12-08T17:45:51.397Z,100811.41
2022-12-08T17:47:55.450Z,100814.03
2022-12-08T17:49:59.477Z,100815.75
2022-12-08T17:52:04.866Z,100816.56
2022-12-08T17:54:08.795Z,100820.00
2022-12-08T17:56:16.913Z,100825.25
2022-12-08T17:58:21.272Z,100820.06
2022-12-08T18:00:25.137Z,100818.31
2022-12-08T18:02:33.664Z,100817.47
2022-12-08T18:04:37.756Z,100816.63
2022-12-08T18:06:43.179Z,100817.56
2022-12-08T18:08:47.141Z,100821.94
2022-12-08T18:10:51.469Z,100811.59
2022-12-08T18:12:54.947Z,100815.13
2022-12-08T18:14:59.386Z,100820.34
2022-12-08T18:17:03.091Z,100813.44
2022-12-08T18:19:10.260Z,100814.38
2022-12-08T18:21:17.369Z,100816.13
2022-12-08T18:23:25.527Z,100817.91
2022-12-08T18:25:29.236Z,100817.91
2022-12-08T18:27:37.289Z,100818.81
2022-12-08T18:29:43.928Z,100813.66
2022-12-08T18:31:47.557Z,100810.28
2022-12-08T18:33:54.006Z,100820.75
2022-12-08T18:35:59.791Z,100819.09
2022-12-08T18:38:03.630Z,100813.06
2022-12-08T18:40:08.715Z,100816.59
2022-12-08T18:42:24.060Z,100808.75
2022-12-08T18:44:28.131Z,100808.75
2022-12-08T18:46:31.676Z,100813.06
2022-12-08T18:48:36.354Z,100816.63
2022-12-08T18:50:45.098Z,100809.69
2022-12-08T18:52:50.560Z,100807.13
2022-12-08T18:55:09.329Z,100808.84
2022-12-08T18:57:13.326Z,100806.28
2022-12-08T18:59:17.149Z,100809.78
2022-12-08T19:01:21.214Z,100814.97
2022-12-08T19:03:24.877Z,100810.69
2022-12-08T19:05:28.738Z,100807.25
2022-12-08T19:07:32.247Z,100805.53
2022-12-08T19:09:37.334Z,100807.28
2022-12-08T19:11:41.272Z,100816.03
2022-12-08T19:13:44.735Z,100811.66
2022-12-08T19:15:48.503Z,100811.69
2022-12-08T19:17:52.508Z,100814.34
2022-12-08T19:19:56.115Z,100817.00
2022-12-08T19:22:00.399Z,100810.06
2022-12-08T19:24:04.122Z,100811.81
2022-12-08T19:26:09.834Z,100814.47
2022-12-08T19:28:13.348Z,100813.63
2022-12-08T19:30:17.483Z,100808.44
2022-12-08T19:32:20.953Z,100809.28
2022-12-08T19:34:24.787Z,100809.31
2022-12-08T19:36:31.971Z,100810.25
2022-12-08T19:38:56.199Z,100818.06
2022-12-08T19:41:20.894Z,100809.44
2022-12-08T19:43:44.008Z,100808.63
2022-12-08T19:45:48.007Z,100806.91
2022-12-08T19:47:51.830Z,100802.63
2022-12-08T19:50:16.527Z,100800.91
2022-12-08T19:52:20.570Z,100805.22
2022-12-08T19:54:24.236Z,100801.75
2022-12-08T19:56:28.254Z,100804.34
2022-12-08T19:58:33.351Z,100798.25
2022-12-08T20:00:39.549Z,100799.97
2022-12-08T20:02:43.989Z,100802.59
2022-12-08T20:04:47.727Z,100805.16
2022-12-08T20:06:53.466Z,100804.28
2022-12-08T20:08:57.282Z,100803.41
2022-12-08T20:11:01.175Z,100799.97
2022-12-08T20:13:23.162Z,100800.81
2022-12-08T20:15:28.085Z,100813.88
2022-12-08T20:17:31.855Z,100822.63
2022-12-08T20:19:35.343Z,100808.75
2022-12-08T20:21:40.735Z,100811.38
2022-12-08T20:23:45.610Z,100807.03
2022-12-08T20:25:50.647Z,100799.22
2022-12-08T20:27:55.389Z,100799.22
2022-12-08T20:29:59.262Z,100800.94
2022-12-08T20:32:04.593Z,100793.16
2022-12-08T20:34:08.804Z,100787.94
2022-12-08T20:36:18.222Z,100795.72
2022-12-08T20:38:21.802Z,100796.59
2022-12-08T20:40:25.841Z,100797.44
2022-12-08T20:42:29.555Z,100800.94
2022-12-08T20:44:34.196Z,100804.38
2022-12-08T20:46:38.290Z,100808.75
2022-12-08T20:48:43.627Z,100821.75
2022-12-08T20:50:47.209Z,100819.09
2022-12-08T20:52:50.922Z,100820.88
2022-12-08T20:54:56.266Z,100812.09
2022-12-08T20:56:59.853Z,100817.31
2022-12-08T20:59:03.651Z,100808.53
2022-12-08T21:01:11.065Z,100818.91
2022-12-08T21:03:15.707Z,100824.03
2022-12-08T21:05:21.024Z,100824.03
2022-12-08T21:07:25.013Z,100824.03
2022-12-08T21:09:28.890Z,100827.53
2022-12-08T21:11:32.945Z,100830.09
2022-12-08T21:13:38.793Z,100829.22
2022-12-08T21:15:47.763Z,100829.22
2022-12-08T21:17:52.170Z,100833.59
2022-12-08T21:19:56.590Z,100833.66
2022-12-08T21:22:01.901Z,100843.44
2022-12-08T21:24:06.871Z,100838.38
2022-12-08T21:26:16.524Z,100841.72
2022-12-08T21:28:21.847Z,100836.38
2022-12-08T21:30:26.334Z,100828.41
2022-12-08T21:32:31.077Z,100833.47
2022-12-08T21:34:35.555Z,100828.16
2022-12-08T21:36:39.747Z,100833.31
2022-12-08T21:38:45.686Z,100830.63
2022-12-08T21:40:49.444Z,100836.59
2022-12-08T21:42:53.474Z,100838.22
2022-12-08T21:44:57.289Z,100837.28
2022-12-08T21:47:01.501Z,100832.84
2022-12-08T21:49:06.368Z,100831.91
2022-12-08T21:51:10.302Z,100825.81
2022-12-08T21:53:13.989Z,100826.66
2022-12-08T21:55:21.088Z,100829.25
2022-12-08T21:57:24.848Z,100832.75
2022-12-08T21:59:28.499Z,100841.38
2022-12-08T22:01:32.020Z,100834.38
2022-12-08T22:03:35.743Z,100834.38
2022-12-08T22:05:39.463Z,100834.31
2022-12-08T22:07:43.677Z,100829.06
2022-12-08T22:09:47.402Z,100829.94
2022-12-08T22:11:52.377Z,100828.13
2022-12-08T22:13:56.088Z,100831.56
2022-12-08T22:16:01.054Z,100823.75
2022-12-08T22:18:05.375Z,100831.56
2022-12-08T22:20:12.548Z,100820.34
2022-12-08T22:22:16.201Z,100812.56
2022-12-08T22:24:19.554Z,100809.94
2022-12-08T22:26:22.954Z,100812.56
2022-12-08T22:28:28.383Z,100809.06
2022-12-08T22:30:37.237Z,100807.34
2022-12-08T22:32:42.586Z,100809.91
2022-12-08T22:34:45.974Z,100816.88
2022-12-08T22:36:49.640Z,100819.50
2022-12-08T22:38:53.953Z,100815.97
2022-12-08T22:40:57.498Z,100815.97
2022-12-08T22:43:00.805Z,100811.63
2022-12-08T22:45:05.590Z,100815.97
2022-12-08T22:47:09.308Z,100814.19
2022-12-08T22:49:13.087Z,100816.78
2022-12-08T22:51:17.058Z,100812.38
2022-12-08T22:53:20.543Z,100810.59
2022-12-08T22:55:24.362Z,100814.03
2022-12-08T22:57:29.075Z,100814.03
2022-12-08T22:59:34.106Z,100808.00
2022-12-08T23:01:39.187Z,100811.47
2022-12-08T23:03:43.135Z,100816.66
2022-12-08T23:05:47.050Z,100809.75
2022-12-08T23:07:53.200Z,100814.97
2022-12-08T23:09:58.443Z,100815.81
2022-12-08T23:12:02.148Z,100810.56
2022-12-08T23:14:06.078Z,100814.84
2022-12-08T23:16:11.793Z,100804.38
2022-12-08T23:18:19.966Z,100803.44
2022-12-08T23:20:23.817Z,100803.44
2022-12-08T23:22:27.560Z,100799.94
2022-12-08T23:24:31.333Z,100799.94
2022-12-08T23:26:35.525Z,100793.84
2022-12-08T23:28:39.286Z,100789.56
2022-12-08T23:30:43.204Z,100793.06
2022-12-08T23:32:47.250Z,100799.13
2022-12-08T23:34:52.582Z,100801.72
2022-12-08T23:36:56.204Z,100798.22
2022-12-08T23:39:00.218Z,100805.16
2022-12-08T23:41:04.755Z,100797.28
2022-12-08T23:43:08.526Z,100808.59
2022-12-08T23:45:13.024Z,100800.72
2022-12-08T23:47:16.790Z,100801.59
2022-12-08T23:49:21.620Z,100798.09
2022-12-08T23:51:27.119Z,100791.19
2022-12-08T23:53:31.439Z,100791.19
2022-12-08T23:55:35.282Z,100779.13
2022-12-08T23:57:39.637Z,100781.81
2022-12-08T23:59:43.240Z,100780.09
